Time;durP1;ratioP1;P1;durP2;ratioP2;P2;SDS_P1;SDS_P2;PMS_P1;PMS_P2;Temp;Humidity;BMP_temperature;BMP_pressure;BME280_temperature;BME280_humidity;BME280_pressure;Samples;Min_cycle;Max_cycle;Signal;HPM_P1;HPM_P2
2023/07/07 00:01:38;;;;;;;;;11.67;10.33;;;;;23.83;42.10;100803.91;4829417;29;45412;-73
2023/07/07 00:04:04;;;;;;;;;10.00;10.00;;;;;23.74;41.65;100799.69;4813028;29;45436;-73
2023/07/07 00:06:29;;;;;;;;;10.67;10.67;;;;;23.73;42.03;100800.66;4812017;29;45485;-72
2023/07/07 00:08:55;;;;;;;;;8.00;8.00;;;;;23.72;41.94;100807.03;4828111;29;46086;-72
2023/07/07 00:11:21;;;;;;;;;10.00;10.00;;;;;23.68;42.45;100812.66;4828447;29;45549;-73
2023/07/07 00:13:47;;;;;;;;;8.33;8.33;;;;;23.67;42.58;100811.75;4828535;29;45422;-72
2023/07/07 00:16:14;;;;;;;;;10.00;10.00;;;;;23.63;42.53;100804.69;4828780;29;45412;-73
2023/07/07 00:18:39;;;;;;;;;8.67;8.67;;;;;23.64;42.65;100808.28;4828654;29;45429;-73
2023/07/07 00:21:05;;;;;;;;;11.00;10.33;;;;;23.62;42.81;100805.63;4829028;29;44790;-73
2023/07/07 00:23:32;;;;;;;;;10.67;9.67;;;;;23.59;43.29;100805.72;4828632;29;45433;-73
2023/07/07 00:26:03;;;;;;;;;8.33;8.33;;;;;23.62;43.19;100808.34;4827565;29;45467;-73
2023/07/07 00:28:29;;;;;;;;;8.67;8.33;;;;;23.48;43.22;100806.16;4827437;29;46203;-73
2023/07/07 00:30:55;;;;;;;;;10.33;9.00;;;;;23.45;42.68;100816.22;4827652;29;45459;-73
2023/07/07 00:33:26;;;;;;;;;8.33;8.00;;;;;23.45;43.21;100816.22;4828940;29;45861;-73
2023/07/07 00:35:52;;;;;;;;;5.67;5.00;;;;;23.40;43.26;100813.69;4827225;29;45775;-73
2023/07/07 00:38:18;;;;;;;;;8.67;8.67;;;;;23.43;43.53;100804.53;4827919;29;45414;-73
2023/07/07 00:44:08;;;;;;;;;12.00;10.67;;;;;23.45;43.54;100813.50;4827347;29;45461;-73
2023/07/07 00:46:35;;;;;;;;;9.33;8.67;;;;;23.37;43.59;100808.41;4827366;29;45742;-74
2023/07/07 00:49:04;;;;;;;;;7.33;6.00;;;;;23.41;43.59;100801.00;4826772;29;45410;-73
2023/07/07 00:51:39;;;;;;;;;9.67;8.00;;;;;23.35;43.60;100786.75;4825881;29;45523;-73
2023/07/07 00:54:12;;;;;;;;;13.67;10.00;;;;;23.40;44.15;100810.09;4827211;29;45532;-74
2023/07/07 00:56:46;;;;;;;;;11.00;11.00;;;;;23.39;44.07;100802.91;4827501;29;45442;-74
2023/07/07 00:59:30;;;;;;;;;8.33;8.33;;;;;23.38;43.89;100806.56;4828406;29;45087;-74
2023/07/07 01:02:01;;;;;;;;;10.67;10.67;;;;;23.34;44.05;100795.81;4829553;29;45473;-74
2023/07/07 01:04:30;;;;;;;;;8.67;8.00;;;;;23.33;44.30;100795.91;4828678;29;45431;-74
2023/07/07 01:07:06;;;;;;;;;11.00;9.67;;;;;23.34;44.29;100790.38;4827549;29;45394;-74
2023/07/07 01:09:31;;;;;;;;;6.33;6.33;;;;;23.24;44.24;100785.38;4829153;29;46089;-73
2023/07/07 01:11:58;;;;;;;;;9.00;8.00;;;;;23.24;44.19;100783.53;4831624;29;45327;-73
2023/07/07 01:14:29;;;;;;;;;8.67;7.67;;;;;23.29;44.70;100786.97;4814955;29;45451;-73
2023/07/07 01:17:13;;;;;;;;;9.00;9.00;;;;;23.29;44.14;100786.97;4829855;29;45546;-73
2023/07/07 01:19:57;;;;;;;;;12.00;10.00;;;;;23.15;44.84;100789.34;4829533;29;45111;-74
2023/07/07 01:22:43;;;;;;;;;9.00;8.67;;;;;23.26;45.05;100792.50;4829230;29;45394;-74
2023/07/07 01:25:10;;;;;;;;;9.33;9.33;;;;;23.10;45.05;100788.59;4828748;29;45340;-73
2023/07/07 01:28:10;;;;;;;;;9.33;9.00;;;;;23.21;45.08;100793.63;4829616;29;45453;-73
2023/07/07 01:30:42;;;;;;;;;10.00;9.00;;;;;23.09;44.71;100786.84;4829419;29;45387;-73
2023/07/07 01:33:11;;;;;;;;;8.00;8.00;;;;;23.08;45.03;100785.06;4826990;29;45452;-73
2023/07/07 01:35:38;;;;;;;;;7.00;7.00;;;;;22.99;44.79;100793.53;4829744;29;45524;-73
2023/07/07 01:38:05;;;;;;;;;10.33;9.67;;;;;22.95;44.82;100796.34;4828634;29;45876;-73
2023/07/07 01:40:53;;;;;;;;;9.67;9.67;;;;;23.02;44.88;100779.88;4828685;29;45502;-74
2023/07/07 01:43:33;;;;;;;;;7.67;7.67;;;;;22.97;44.57;100791.75;4826864;29;45443;-73
2023/07/07 01:46:27;;;;;;;;;10.00;9.00;;;;;22.97;44.27;100794.44;4837565;29;45525;-73
2023/07/07 01:49:29;;;;;;;;;7.67;7.67;;;;;22.93;44.16;100781.94;4827640;29;45304;-73
2023/07/07 01:51:59;;;;;;;;;10.00;8.00;;;;;22.92;44.45;100791.00;4770965;29;45555;-73
2023/07/07 01:54:27;;;;;;;;;7.67;7.33;;;;;22.84;44.59;100787.69;4755199;29;45408;-73
2023/07/07 01:56:55;;;;;;;;;10.33;9.67;;;;;22.82;44.79;100776.00;4771676;29;45407;-73
2023/07/07 01:59:21;;;;;;;;;6.33;6.33;;;;;22.75;45.04;100779.91;4772041;29;45523;-72
2023/07/07 02:01:47;;;;;;;;;7.33;7.33;;;;;22.76;45.31;100782.56;4756393;29;46377;-73
2023/07/07 02:04:12;;;;;;;;;10.00;8.00;;;;;22.70;45.85;100777.38;4770459;29;45416;-74
2023/07/07 02:06:38;;;;;;;;;10.00;9.67;;;;;22.66;45.49;100770.28;4771510;29;45787;-72
2023/07/07 02:09:03;;;;;;;;;8.00;8.00;;;;;22.62;46.28;100778.56;4756521;29;45346;-73
2023/07/07 02:11:28;;;;;;;;;8.00;7.33;;;;;22.57;46.35;100778.72;4771053;29;45474;-73
2023/07/07 02:13:54;;;;;;;;;10.00;9.67;;;;;22.47;46.56;100770.03;4769042;29;45469;-73
2023/07/07 02:16:19;;;;;;;;;10.00;8.67;;;;;22.45;46.39;100782.75;4770919;29;45879;-73
2023/07/07 02:18:48;;;;;;;;;9.33;9.00;;;;;22.44;46.41;100782.78;4769760;29;45498;-73
2023/07/07 02:21:14;;;;;;;;;8.67;8.33;;;;;22.40;46.61;100784.75;4772319;29;45960;-73
2023/07/07 02:23:40;;;;;;;;;9.33;8.00;;;;;22.33;46.50;100773.22;4755472;29;45479;-73
2023/07/07 02:26:05;;;;;;;;;8.33;8.33;;;;;22.31;46.88;100771.50;4771578;29;45533;-74
2023/07/07 02:28:31;;;;;;;;;9.00;9.00;;;;;22.29;46.98;100774.25;4823521;29;44855;-73
2023/07/07 02:30:56;;;;;;;;;6.00;5.00;;;;;22.27;46.80;100764.41;4828183;29;45642;-73
2023/07/07 02:33:30;;;;;;;;;7.00;7.00;;;;;22.23;47.09;100765.44;4841868;29;45398;-73
2023/07/07 02:36:01;;;;;;;;;8.33;8.33;;;;;22.27;46.92;100773.41;4827882;29;45483;-73
2023/07/07 02:38:27;;;;;;;;;8.00;8.00;;;;;22.18;47.55;100769.19;4827422;29;45290;-73
2023/07/07 02:40:52;;;;;;;;;9.67;9.67;;;;;22.16;47.82;100764.75;4826781;29;45852;-73
2023/07/07 02:43:18;;;;;;;;;10.33;7.33;;;;;22.16;47.98;100773.75;4828352;29;45483;-73
2023/07/07 02:45:44;;;;;;;;;10.33;8.00;;;;;22.19;47.91;100764.63;4828526;29;45382;-73
2023/07/07 02:48:09;;;;;;;;;12.67;9.33;;;;;22.12;48.34;100772.09;4828106;29;45690;-73
2023/07/07 02:50:35;;;;;;;;;6.33;6.33;;;;;22.10;48.06;100773.09;4829130;29;45482;-73
2023/07/07 02:53:00;;;;;;;;;10.00;10.00;;;;;22.06;48.60;100764.19;4829233;29;45397;-73
2023/07/07 02:55:26;;;;;;;;;9.00;9.00;;;;;22.03;48.56;100764.25;4828226;29;45492;-73
2023/07/07 02:57:51;;;;;;;;;8.67;8.67;;;;;22.00;48.74;100758.97;4825957;29;45553;-72
2023/07/07 03:00:19;;;;;;;;;8.67;8.67;;;;;22.01;48.99;100767.97;4827147;29;45556;-73
2023/07/07 03:02:46;;;;;;;;;8.33;8.33;;;;;21.95;48.58;100771.75;4828653;29;45699;-73
2023/07/07 03:05:12;;;;;;;;;9.67;8.67;;;;;21.95;48.77;100766.34;4829206;29;45446;-72
2023/07/07 03:07:38;;;;;;;;;8.00;8.00;;;;;21.93;48.39;100779.91;4812228;29;45429;-73
2023/07/07 03:10:05;;;;;;;;;9.00;9.00;;;;;21.91;48.22;100765.53;4828128;29;45441;-73
2023/07/07 03:12:30;;;;;;;;;8.33;8.33;;;;;21.90;48.44;100769.19;4828676;29;44802;-73
2023/07/07 03:14:57;;;;;;;;;8.00;8.00;;;;;21.96;48.37;100768.13;4826936;29;45458;-74
2023/07/07 03:17:23;;;;;;;;;8.00;8.00;;;;;21.87;48.15;100772.00;4828479;29;45421;-73
2023/07/07 03:19:49;;;;;;;;;10.00;10.00;;;;;21.87;48.59;100763.00;4811622;29;46973;-73
2023/07/07 03:22:14;;;;;;;;;8.67;7.00;;;;;21.85;48.37;100760.31;4826940;29;45394;-73
2023/07/07 03:24:39;;;;;;;;;8.00;8.00;;;;;21.86;48.30;100758.53;4810408;29;45540;-73
2023/07/07 03:27:05;;;;;;;;;8.33;8.00;;;;;21.84;48.86;100758.56;4810743;29;45429;-73
2023/07/07 03:29:31;;;;;;;;;8.00;8.00;;;;;21.85;48.55;100756.75;4826887;29;47258;-73
2023/07/07 03:31:56;;;;;;;;;7.67;7.67;;;;;21.81;48.53;100757.78;4831232;29;45412;-72
2023/07/07 03:34:22;;;;;;;;;8.00;8.00;;;;;21.78;48.74;100758.78;4831368;29;45354;-73
2023/07/07 03:36:48;;;;;;;;;10.00;10.00;;;;;21.76;49.08;100757.94;4829424;29;45462;-73
2023/07/07 03:39:13;;;;;;;;;11.67;11.67;;;;;21.75;48.77;100758.84;4829532;29;45844;-73
2023/07/07 03:41:39;;;;;;;;;9.67;8.33;;;;;21.72;48.95;100762.56;4812890;29;45515;-73
2023/07/07 03:44:04;;;;;;;;;7.67;7.67;;;;;21.73;49.11;100756.22;4829248;29;45928;-72
2023/07/07 03:46:29;;;;;;;;;10.00;8.00;;;;;21.70;48.78;100761.72;4828996;29;45782;-73
2023/07/07 03:48:56;;;;;;;;;10.00;8.67;;;;;21.68;49.12;100763.59;4829203;29;45509;-73
2023/07/07 03:51:24;;;;;;;;;12.00;11.00;;;;;21.69;48.81;100768.09;4829201;29;45374;-73
2023/07/07 03:53:50;;;;;;;;;11.00;10.00;;;;;21.64;48.95;100761.91;4829109;29;45386;-73
2023/07/07 03:56:16;;;;;;;;;9.00;9.00;;;;;21.62;48.83;100768.31;4829832;29;45488;-74
2023/07/07 03:58:43;;;;;;;;;7.33;7.00;;;;;21.65;49.17;100762.78;4828572;29;45837;-73
2023/07/07 04:01:10;;;;;;;;;10.00;10.00;;;;;21.64;48.92;100770.03;4812934;29;45670;-73
2023/07/07 04:03:36;;;;;;;;;8.00;8.00;;;;;21.57;49.01;100765.72;4830278;29;45497;-72
2023/07/07 04:06:02;;;;;;;;;12.00;9.00;;;;;21.61;48.71;100764.69;4828964;29;45483;-73
2023/07/07 04:08:28;;;;;;;;;6.33;6.33;;;;;21.64;48.84;100761.91;4828531;29;46100;-73
2023/07/07 04:11:09;;;;;;;;;9.33;7.67;;;;;21.70;48.64;100761.72;4828547;29;45417;-73
2023/07/07 04:13:37;;;;;;;;;7.33;7.33;;;;;21.69;49.02;100772.59;4828398;29;45404;-74
2023/07/07 04:16:29;;;;;;;;;9.00;9.00;;;;;21.73;48.81;100767.06;4828267;29;45410;-73
2023/07/07 04:18:55;;;;;;;;;7.33;7.33;;;;;21.66;48.94;100772.69;4807498;29;48103;-73
2023/07/07 04:21:24;;;;;;;;;6.33;6.33;;;;;21.69;48.92;100770.78;4828201;29;45450;-73
2023/07/07 04:23:52;;;;;;;;;7.67;7.67;;;;;21.74;48.66;100768.81;4828148;29;45420;-73
2023/07/07 04:26:19;;;;;;;;;9.00;8.67;;;;;21.74;48.75;100773.34;4812035;29;45508;-73
2023/07/07 04:28:45;;;;;;;;;9.00;9.00;;;;;21.77;48.25;100779.56;4828943;29;45545;-73
2023/07/07 04:31:12;;;;;;;;;9.67;8.00;;;;;21.86;48.27;100778.34;4827194;29;45393;-73
2023/07/07 04:33:38;;;;;;;;;8.67;8.67;;;;;21.91;47.51;100780.91;4828696;29;45401;-74
2023/07/07 04:36:09;;;;;;;;;8.00;8.00;;;;;22.01;47.45;100787.78;4829037;29;45421;-74
2023/07/07 04:38:35;;;;;;;;;7.33;6.00;;;;;22.03;47.53;100785.06;4829259;29;46291;-73
2023/07/07 04:41:19;;;;;;;;;9.00;9.00;;;;;22.18;47.08;100785.44;4828007;29;45356;-73
2023/07/07 04:43:51;;;;;;;;;6.00;6.00;;;;;22.24;46.87;100783.47;4829165;29;45398;-74
2023/07/07 04:46:32;;;;;;;;;7.33;7.33;;;;;22.31;46.64;100782.34;4822660;29;45418;-72
2023/07/07 04:48:59;;;;;;;;;9.00;8.00;;;;;22.29;46.83;100778.78;4842990;29;46219;-73
2023/07/07 04:51:24;;;;;;;;;6.00;6.00;;;;;22.36;46.35;100777.66;4828391;29;45417;-73
2023/07/07 04:53:50;;;;;;;;;8.33;8.33;;;;;22.43;46.41;100773.78;4841755;29;45416;-72
2023/07/07 04:56:19;;;;;;;;;10.33;8.00;;;;;22.59;46.13;100778.69;4827366;29;45432;-74
2023/07/07 04:58:48;;;;;;;;;8.67;8.00;;;;;22.59;46.17;100778.69;4827355;29;45445;-72
2023/07/07 05:01:23;;;;;;;;;6.67;6.67;;;;;22.60;46.68;100772.31;4826934;29;45397;-74
2023/07/07 05:03:53;;;;;;;;;6.00;6.00;;;;;22.63;46.42;100775.81;4826651;29;45763;-74
2023/07/07 05:06:20;;;;;;;;;11.00;7.33;;;;;22.59;46.07;100778.69;4827759;29;45456;-74
2023/07/07 05:08:47;;;;;;;;;6.00;6.00;;;;;22.67;45.92;100779.28;4826025;29;45559;-74
2023/07/07 05:11:15;;;;;;;;;7.33;5.67;;;;;22.71;46.03;100784.53;4827899;29;45380;-72
2023/07/07 05:13:41;;;;;;;;;10.00;8.33;;;;;22.69;46.40;100775.59;4828468;29;45456;-73
2023/07/07 05:16:10;;;;;;;;;7.67;7.00;;;;;22.81;46.32;100776.09;4828840;29;45361;-73
2023/07/07 05:18:36;;;;;;;;;9.67;8.00;;;;;22.71;46.26;100773.69;4828331;29;45971;-73
2023/07/07 05:21:06;;;;;;;;;10.00;10.00;;;;;22.90;46.01;100790.19;4828112;29;45437;-73
2023/07/07 05:23:31;;;;;;;;;6.00;6.00;;;;;22.95;46.14;100785.50;4828145;29;45402;-74
2023/07/07 05:25:57;;;;;;;;;7.00;7.00;;;;;23.07;46.00;100781.47;4827553;29;45714;-72
2023/07/07 05:28:22;;;;;;;;;7.33;7.33;;;;;23.17;46.00;100784.72;4827664;29;45639;-73
2023/07/07 05:30:48;;;;;;;;;7.67;7.67;;;;;23.30;45.68;100777.00;4828221;29;45352;-73
2023/07/07 05:33:13;;;;;;;;;7.00;7.00;;;;;23.40;45.24;100785.69;4827514;29;45413;-73
2023/07/07 05:35:51;;;;;;;;;9.33;8.00;;;;;23.66;44.88;100785.53;4827756;29;45437;-73
2023/07/07 05:38:17;;;;;;;;;11.67;10.00;;;;;23.68;45.21;100788.22;4827587;29;45730;-73
2023/07/07 05:40:45;;;;;;;;;10.33;10.33;;;;;23.75;44.95;100789.72;4825642;29;45517;-74
2023/07/07 05:43:11;;;;;;;;;5.33;5.33;;;;;23.81;44.79;100784.06;4841423;29;45427;-73
2023/07/07 05:45:36;;;;;;;;;9.67;9.67;;;;;23.89;44.38;100789.19;4828131;29;45438;-73
2023/07/07 05:48:02;;;;;;;;;11.67;7.67;;;;;23.96;44.16;100790.72;4828887;29;46552;-73
2023/07/07 05:50:27;;;;;;;;;8.67;7.67;;;;;24.02;43.56;100786.88;4828168;29;45451;-73
2023/07/07 05:52:56;;;;;;;;;8.67;8.67;;;;;24.17;44.03;100781.66;4811045;29;45463;-73
2023/07/07 05:55:25;;;;;;;;;10.33;7.67;;;;;24.29;43.74;100790.28;4811046;29;45452;-73
2023/07/07 05:57:51;;;;;;;;;6.67;6.67;;;;;24.31;43.59;100789.25;4827645;29;46457;-73
2023/07/07 06:00:17;;;;;;;;;9.33;8.33;;;;;24.42;43.11;100793.34;4827898;29;45305;-73
2023/07/07 06:02:42;;;;;;;;;8.67;8.33;;;;;24.48;42.82;100796.69;4826641;29;44781;-73
2023/07/07 06:05:08;;;;;;;;;9.33;9.00;;;;;24.46;43.13;100785.00;4811587;29;45612;-73
2023/07/07 06:07:33;;;;;;;;;9.33;8.67;;;;;24.49;42.55;100786.69;4827466;29;45404;-73
2023/07/07 06:09:59;;;;;;;;;10.67;9.00;;;;;24.56;42.92;100785.50;4826867;29;45418;-73
2023/07/07 06:12:24;;;;;;;;;8.67;8.00;;;;;24.70;42.63;100780.38;4827665;29;45408;-74
2023/07/07 06:14:50;;;;;;;;;8.00;6.33;;;;;24.83;42.19;100788.88;4827467;29;45470;-73
2023/07/07 06:17:15;;;;;;;;;8.33;7.67;;;;;24.85;42.26;100792.41;4827012;29;45501;-73
2023/07/07 06:19:40;;;;;;;;;8.00;8.00;;;;;24.91;42.21;100783.97;4827325;29;45364;-73
2023/07/07 06:22:07;;;;;;;;;9.33;8.33;;;;;25.08;42.23;100782.31;4827335;29;45423;-74
2023/07/07 06:24:32;;;;;;;;;8.00;8.00;;;;;25.13;41.71;100778.44;4827733;29;45387;-74
2023/07/07 06:26:58;;;;;;;;;7.00;7.00;;;;;25.20;42.07;100789.91;4829506;29;45425;-78
2023/07/07 06:29:23;;;;;;;;;9.67;8.33;;;;;25.16;41.26;100782.84;4831947;29;45414;-78
2023/07/07 06:31:48;;;;;;;;;7.00;7.00;;;;;25.11;41.12;100791.22;4832419;29;45352;-77
2023/07/07 06:34:21;;;;;;;;;12.00;9.33;;;;;25.14;41.70;100787.47;4833321;29;45410;-77
2023/07/07 06:36:47;;;;;;;;;10.00;8.33;;;;;25.28;41.82;100782.31;4831704;29;45442;-77
2023/07/07 06:39:12;;;;;;;;;8.33;8.33;;;;;25.39;40.79;100789.06;4815763;29;45365;-77
2023/07/07 06:41:44;;;;;;;;;8.67;8.00;;;;;25.33;41.26;100790.28;4815806;29;45439;-78
2023/07/07 06:44:15;;;;;;;;;8.00;8.00;;;;;25.56;41.03;100797.34;4832492;29;44797;-78
2023/07/07 06:46:44;;;;;;;;;9.00;7.67;;;;;25.68;41.30;100802.19;4826249;29;45710;-78
2023/07/07 06:49:16;;;;;;;;;10.00;9.00;;;;;25.86;40.90;100788.66;4832674;29;45461;-78
2023/07/07 06:51:42;;;;;;;;;10.33;9.00;;;;;25.93;41.14;100795.59;4832186;29;45666;-78
2023/07/07 06:54:07;;;;;;;;;9.33;8.00;;;;;26.03;41.09;100791.44;4844958;29;45946;-74
2023/07/07 06:56:33;;;;;;;;;5.33;5.33;;;;;26.14;40.78;100794.53;4827179;29;46080;-74
2023/07/07 06:59:07;;;;;;;;;5.00;5.00;;;;;26.24;40.58;100799.50;4837507;29;45370;-74
2023/07/07 07:01:32;;;;;;;;;6.33;6.33;;;;;26.32;40.29;100803.63;4860999;29;45701;-74
2023/07/07 07:04:00;;;;;;;;;6.00;6.00;;;;;26.52;39.95;100797.16;4846595;29;45466;-74
2023/07/07 07:06:26;;;;;;;;;3.67;3.67;;;;;26.67;39.16;100794.63;4860918;29;45563;-73
2023/07/07 07:08:55;;;;;;;;;7.67;7.67;;;;;26.78;39.86;100794.94;4847524;29;45460;-72
2023/07/07 07:14:44;;;;;;;;;11.00;9.00;;;;;26.92;39.53;100802.41;4847395;29;46039;-72
2023/07/07 07:17:10;;;;;;;;;8.00;6.00;;;;;26.76;39.72;100796.84;4847442;29;46287;-74
2023/07/07 07:19:35;;;;;;;;;9.00;6.00;;;;;26.94;39.43;100804.09;4848867;29;45541;-74
2023/07/07 07:22:01;;;;;;;;;8.33;7.33;;;;;27.16;39.31;100804.78;4844840;29;45455;-75
2023/07/07 07:24:27;;;;;;;;;7.00;7.00;;;;;27.30;38.76;100803.09;4848709;29;45589;-74
2023/07/07 07:26:52;;;;;;;;;13.67;9.67;;;;;27.21;38.98;100795.38;4846941;29;46843;-73
2023/07/07 07:29:21;;;;;;;;;7.33;7.33;;;;;27.34;38.38;100804.69;4839015;29;45483;-73
2023/07/07 07:31:46;;;;;;;;;6.33;5.67;;;;;27.34;38.86;100798.34;4845407;29;45408;-73
2023/07/07 07:34:39;;;;;;;;;5.00;3.67;;;;;27.45;38.41;100797.75;4838975;29;45645;-75
2023/07/07 07:37:06;;;;;;;;;7.00;6.33;;;;;27.23;38.45;100807.13;4837993;29;45633;-73
2023/07/07 07:39:32;;;;;;;;;10.00;10.00;;;;;27.09;39.45;100799.66;4841015;29;45507;-74
2023/07/07 07:41:58;;;;;;;;;8.00;7.00;;;;;27.11;38.81;100802.31;4837185;29;45400;-74
2023/07/07 07:44:25;;;;;;;;;8.33;7.00;;;;;27.19;38.62;100804.59;4845811;29;45562;-74
2023/07/07 07:46:55;;;;;;;;;7.33;7.33;;;;;27.19;38.46;100804.59;4842949;29;47708;-73
2023/07/07 07:49:24;;;;;;;;;5.00;5.00;;;;;27.18;38.27;100801.00;4845495;29;45969;-74
2023/07/07 07:51:50;;;;;;;;;9.33;8.00;;;;;27.15;38.49;100809.38;4846051;29;45401;-73
2023/07/07 07:54:18;;;;;;;;;6.00;6.00;;;;;27.21;39.05;100798.09;4844362;29;45367;-74
2023/07/07 07:56:44;;;;;;;;;9.67;8.67;;;;;27.28;39.01;100804.13;4847973;29;46162;-73
2023/07/07 07:59:10;;;;;;;;;7.33;6.33;;;;;27.36;38.75;100806.47;4846293;29;45591;-73
2023/07/07 08:01:36;;;;;;;;;9.00;8.00;;;;;27.50;38.08;100795.66;4845563;29;46381;-74
2023/07/07 08:04:11;;;;;;;;;6.67;6.67;;;;;27.70;38.14;100806.31;4849832;29;45703;-73
2023/07/07 08:06:37;;;;;;;;;7.00;6.00;;;;;27.82;38.33;100801.16;4845450;29;45597;-73
2023/07/07 08:09:03;;;;;;;;;8.00;7.33;;;;;27.99;37.14;100803.81;4850727;29;45450;-74
2023/07/07 08:11:44;;;;;;;;;8.33;8.33;;;;;27.99;36.73;100812.00;4851196;29;45384;-74
2023/07/07 08:14:20;;;;;;;;;7.00;6.33;;;;;27.78;37.43;100810.50;4838520;29;45331;-74
2023/07/07 08:16:47;;;;;;;;;8.00;6.67;;;;;27.49;37.42;100816.63;4846899;29;45752;-74
2023/07/07 08:19:13;;;;;;;;;7.67;7.00;;;;;27.44;38.12;100809.66;4848607;29;45600;-74
2023/07/07 08:21:42;;;;;;;;;8.67;7.00;;;;;27.54;37.64;100817.22;4844848;29;45484;-75
2023/07/07 08:24:08;;;;;;;;;7.67;7.67;;;;;27.54;37.43;100810.91;4843327;29;45554;-75
2023/07/07 08:26:34;;;;;;;;;9.00;9.00;;;;;27.65;37.14;100802.09;4840335;29;45554;-73
2023/07/07 08:29:00;;;;;;;;;5.67;5.67;;;;;27.68;37.54;100807.41;4842930;29;45438;-74
2023/07/07 08:31:25;;;;;;;;;9.00;8.00;;;;;27.73;37.36;100811.63;4838767;29;45343;-74
2023/07/07 08:33:53;;;;;;;;;10.33;9.00;;;;;27.85;37.15;100822.81;4847607;29;45476;-74
2023/07/07 08:36:22;;;;;;;;;7.67;7.00;;;;;27.73;37.38;100814.38;4847496;29;45388;-73
2023/07/07 08:38:52;;;;;;;;;6.67;6.00;;;;;27.74;38.03;100820.72;4846101;29;45593;-74
2023/07/07 08:41:23;;;;;;;;;8.00;8.00;;;;;27.69;38.22;100822.81;4858367;29;45533;-73
2023/07/07 08:43:49;;;;;;;;;7.00;7.00;;;;;27.52;38.05;100818.28;4857641;29;45458;-73
2023/07/07 08:46:52;;;;;;;;;6.00;6.00;;;;;27.55;38.66;100823.56;4833800;29;47110;-73
2023/07/07 08:49:36;;;;;;;;;6.33;6.33;;;;;27.58;38.70;100817.94;4823239;29;44839;-74
2023/07/07 08:52:05;;;;;;;;;11.00;10.00;;;;;27.62;38.35;100814.09;4845113;29;45497;-74
2023/07/07 08:54:54;;;;;;;;;10.67;8.00;;;;;27.77;38.24;100814.19;4832147;29;45513;-74
2023/07/07 08:57:58;;;;;;;;;9.00;9.00;;;;;27.85;38.98;100809.16;4844189;29;46793;-74
2023/07/07 09:00:42;;;;;;;;;11.33;7.67;;;;;27.84;39.00;100811.00;4846451;29;45484;-74
2023/07/07 09:03:32;;;;;;;;;7.00;7.00;;;;;27.89;38.74;100810.78;4840648;29;46477;-75
2023/07/07 09:06:11;;;;;;;;;12.00;10.00;;;;;27.83;39.17;100816.56;4845169;29;45429;-75
2023/07/07 09:08:40;;;;;;;;;8.33;8.33;;;;;27.70;38.79;100821.84;4842183;29;45573;-74
2023/07/07 09:14:28;;;;;;;;;12.00;9.00;;;;;27.74;39.29;100823.44;4816974;29;45470;-75
2023/07/07 09:17:20;;;;;;;;;11.00;9.00;;;;;27.84;39.11;100823.81;4808743;29;45540;-74
2023/07/07 09:19:48;;;;;;;;;10.00;10.00;;;;;27.81;39.42;100821.22;4804719;29;45595;-74
2023/07/07 09:22:33;;;;;;;;;9.33;8.33;;;;;28.04;38.82;100823.56;4819597;29;45925;-75
2023/07/07 09:25:24;;;;;;;;;10.00;8.00;;;;;28.28;39.03;100820.41;4820008;29;45475;-75
2023/07/07 09:28:02;;;;;;;;;9.00;9.00;;;;;28.46;38.32;100808.34;4824048;29;45421;-75
2023/07/07 09:30:42;;;;;;;;;7.67;7.67;;;;;28.67;38.85;100813.53;4826181;29;46998;-75
2023/07/07 09:33:13;;;;;;;;;12.00;8.67;;;;;28.97;38.88;100804.44;4814100;29;45504;-76
2023/07/07 09:36:00;;;;;;;;;9.67;7.67;;;;;29.13;37.66;100799.78;4799852;29;45956;-76
2023/07/07 09:38:49;;;;;;;;;9.67;9.67;;;;;29.22;37.14;100782.75;4811393;29;45438;-75
2023/07/07 09:41:28;;;;;;;;;10.33;9.00;;;;;29.36;37.49;100786.50;4814556;29;47645;-76
2023/07/07 09:43:53;;;;;;;;;9.00;8.33;;;;;29.56;36.98;100802.53;4818792;29;45975;-75
2023/07/07 09:46:35;;;;;;;;;10.00;8.67;;;;;29.83;37.45;100788.88;4829362;29;45808;-77
2023/07/07 09:49:01;;;;;;;;;11.00;11.00;;;;;29.95;37.07;100794.56;4838522;29;45547;-76
2023/07/07 09:51:45;;;;;;;;;13.00;11.00;;;;;30.09;36.37;100795.38;4844431;29;45256;-76
2023/07/07 09:54:16;;;;;;;;;12.33;9.00;;;;;30.00;36.39;100796.03;4843755;29;45431;-74
2023/07/07 09:57:05;;;;;;;;;14.00;14.00;;;;;29.97;36.08;100790.72;4840591;29;45299;-76
2023/07/07 09:59:41;;;;;;;;;11.33;9.67;;;;;29.89;36.00;100782.13;4856917;29;45644;-75
2023/07/07 10:02:27;;;;;;;;;8.67;7.33;;;;;29.86;36.17;100791.44;4841118;29;45814;-75
2023/07/07 10:05:25;;;;;;;;;9.67;9.67;;;;;29.82;36.21;100786.28;4839949;29;45368;-75
2023/07/07 10:07:51;;;;;;;;;11.00;9.00;;;;;29.77;36.48;100791.16;4845753;29;45457;-76
2023/07/07 10:10:17;;;;;;;;;11.33;11.00;;;;;29.81;36.55;100795.47;4835206;29;45389;-77
2023/07/07 10:12:45;;;;;;;;;8.00;8.00;;;;;29.90;36.25;100786.66;4820840;29;47043;-76
2023/07/07 10:16:01;;;;;;;;;11.00;10.00;;;;;29.96;36.30;100788.09;4836658;29;45603;-75
2023/07/07 10:18:29;;;;;;;;;8.00;8.00;;;;;29.96;36.35;100790.84;4779437;29;45927;-76
2023/07/07 10:20:59;;;;;;;;;11.33;11.33;;;;;29.95;36.67;100789.06;4796532;29;45512;-76
2023/07/07 10:23:30;;;;;;;;;12.67;12.67;;;;;29.97;36.26;100789.84;4780455;29;45451;-75
2023/07/07 10:25:55;;;;;;;;;11.00;9.67;;;;;29.82;35.87;100787.16;4781189;29;45368;-75
2023/07/07 10:28:22;;;;;;;;;9.00;9.00;;;;;29.83;35.93;100782.53;4787595;29;46006;-76
2023/07/07 10:30:51;;;;;;;;;9.67;7.67;;;;;29.81;36.28;100776.28;4788005;29;45460;-76
2023/07/07 10:33:20;;;;;;;;;8.00;8.00;;;;;29.91;36.11;100783.81;4783961;29;45705;-76
2023/07/07 10:35:45;;;;;;;;;10.67;10.33;;;;;29.94;35.98;100779.97;4786353;29;45544;-75
2023/07/07 10:38:14;;;;;;;;;11.33;8.67;;;;;30.05;36.26;100782.00;4789075;29;45548;-74
2023/07/07 10:40:42;;;;;;;;;10.67;10.67;;;;;30.17;36.48;100783.03;4786880;29;45549;-76
2023/07/07 10:43:18;;;;;;;;;12.33;10.33;;;;;30.35;36.35;100784.56;4772223;29;47142;-77
2023/07/07 10:45:45;;;;;;;;;12.33;10.67;;;;;30.29;35.87;100779.44;4788103;29;44974;-77
2023/07/07 10:48:15;;;;;;;;;8.00;6.67;;;;;30.43;35.81;100786.78;4763828;29;46803;-76
2023/07/07 10:51:04;;;;;;;;;10.33;9.00;;;;;30.62;35.99;100780.88;4781562;29;45449;-75
2023/07/07 10:54:10;;;;;;;;;10.67;9.67;;;;;30.75;35.40;100776.31;4784852;29;45558;-75
2023/07/07 10:56:44;;;;;;;;;12.00;12.00;;;;;30.81;35.65;100775.88;4826197;29;45486;-76
2023/07/07 10:59:50;;;;;;;;;8.33;8.33;;;;;30.84;35.08;100774.78;4829838;29;45339;-76
2023/07/07 11:02:40;;;;;;;;;10.67;9.33;;;;;30.93;35.84;100770.56;4769920;29;45558;-75
2023/07/07 11:05:43;;;;;;;;;16.33;14.00;;;;;31.12;34.71;100768.22;4769977;29;45514;-75
2023/07/07 11:08:33;;;;;;;;;10.00;8.33;;;;;31.21;34.47;100759.34;4768426;29;45810;-75
2023/07/07 11:11:07;;;;;;;;;11.00;10.00;;;;;31.35;34.91;100752.84;4767999;29;45598;-76
2023/07/07 11:13:54;;;;;;;;;10.00;10.00;;;;;31.44;34.60;100759.53;4769992;29;45881;-76
2023/07/07 11:16:58;;;;;;;;;7.00;7.00;;;;;31.56;34.49;100744.03;4767027;29;46759;-76
2023/07/07 11:20:01;;;;;;;;;9.00;8.00;;;;;31.73;34.54;100740.88;4722946;30;45587;-77
2023/07/07 11:22:45;;;;;;;;;15.33;14.00;;;;;31.61;34.61;100737.22;4725601;30;45593;-75
2023/07/07 11:25:21;;;;;;;;;9.67;8.67;;;;;31.72;33.71;100735.53;4724702;30;45535;-76
2023/07/07 11:27:55;;;;;;;;;8.00;6.67;;;;;31.52;33.14;100729.63;4703079;30;46999;-75
2023/07/07 11:30:31;;;;;;;;;9.67;9.00;;;;;31.62;34.39;100722.44;4706085;30;45958;-76
2023/07/07 11:33:23;;;;;;;;;10.33;8.00;;;;;31.70;34.61;100720.00;4726576;30;45557;-76
2023/07/07 11:36:12;;;;;;;;;9.00;7.00;;;;;31.77;34.73;100716.78;4705466;30;45537;-74
2023/07/07 11:39:02;;;;;;;;;7.00;7.00;;;;;31.69;34.56;100712.75;4751721;29;46089;-76
2023/07/07 11:41:46;;;;;;;;;8.00;8.00;;;;;31.49;34.71;100714.25;4761792;29;44819;-76
2023/07/07 11:44:44;;;;;;;;;8.00;7.33;;;;;31.51;34.49;100708.66;4743158;29;45640;-76
2023/07/07 11:47:35;;;;;;;;;7.67;7.67;;;;;31.46;34.32;100697.09;4758077;29;45860;-75
2023/07/07 11:50:38;;;;;;;;;6.33;6.33;;;;;31.57;34.35;100704.53;4756880;29;45526;-76
2023/07/07 11:53:39;;;;;;;;;8.33;8.33;;;;;31.60;34.22;100696.06;4753988;29;45445;-74